Canefield, Roseau Canefield Airport (TDCF)

NameRoseau Canefield Airport
CityCanefield
CountryDominica
ICAOTDCF
IATADCF
Altitude4 m
CoordinatesGoogle Map
Live Air TrafficLiveATC.net
METARTDCF 202100Z 29003KT 9999 SCT019 SCT035 27/17 Q1014
2019-02-20 21:00:00 Wind: West (290°) 1.54 m/s - Visibility: > 10000 m - Temperature: 27 °C - Dew point: 17 °C - Humidity: 54.4% - Pressure: 1014 hPa
Statistics

The table below shows the detailed information of all flights to/from Canefield, Roseau Canefield Airport (TDCF).

Ident Aircraft Coming fromFrom Going toTo Owner nameOwnerDate
N916BL - M20T - Kabo Air N916BL MOONEY 231 M20T Fort Lauderdale, United States (KFXE) KFXE
2239 km
Canefield, Dominica (TDCF) TDCF
4515 km
- - Wed, 06 Feb 2019 21:33:49 +0000 6/2/2019 9:33 pm
N916BL - M20T - Kabo Air N916BL MOONEY 231 M20T Fort Lauderdale, United States (KFXE) KFXE
3608 km
Canefield, Dominica (TDCF) TDCF
5886 km
- - Wed, 06 Feb 2019 18:12:02 +0000 6/2/2019 6:12 pm
N375SP - C208 - Aerolineas Mas Aerolineas Mas N375SP CESSNA 208 Caravan 1 C208 Canefield, Dominica (TDCF) TDCF
2914 km
Antigua, Antigua and Barbuda (TAPA) TAPA
2729 km
Samaritans Purse Samaritans Purse Mon, 21 Jan 2019 17:06:42 +0000 21/1/2019 5:06 pm
N375SP - C208 - Aerolineas Mas Aerolineas Mas N375SP CESSNA 208 Caravan 1 C208 Canefield, Dominica (TDCF) TDCF
2518 km
Antigua, Antigua and Barbuda (TAPA) TAPA
2359 km
Samaritans Purse Samaritans Purse Mon, 21 Jan 2019 14:01:08 +0000 21/1/2019 2:01 pm